Time;durP1;ratioP1;P1;durP2;ratioP2;P2;SDS_P1;SDS_P2;PMS_P1;PMS_P2;Temp;Humidity;BMP_temperature;BMP_pressure;BME280_temperature;BME280_humidity;BME280_pressure;Samples;Min_cycle;Max_cycle;Signal;HPM_P1;HPM_P2
2022/11/27 00:01:45;;;;;;;40.70;22.00;;;;;;;2.56;88.38;100098.33;87179;1283;22540;-75
2022/11/27 00:03:46;;;;;;;40.20;22.50;;;;;;;2.61;88.61;100100.77;86676;1287;99216;-75
2022/11/27 00:06:06;;;;;;;42.10;23.10;;;;;;;2.61;88.75;100103.90;87076;1291;22588;-75
2022/11/27 00:08:07;;;;;;;42.70;23.30;;;;;;;2.61;88.71;100105.11;86928;1277;98356;-75
2022/11/27 00:10:08;;;;;;;45.00;24.30;;;;;;;2.60;88.66;100101.98;86757;1280;26480;-76
2022/11/27 00:12:09;;;;;;;43.60;23.00;;;;;;;2.59;88.44;100100.44;86931;1284;22956;-77
2022/11/27 00:14:13;;;;;;;44.10;23.00;;;;;;;2.61;88.51;100100.25;86535;1279;98527;-75
2022/11/27 00:16:16;;;;;;;35.90;21.70;;;;;;;2.60;88.43;100099.38;86864;1284;24242;-75
2022/11/27 00:18:17;;;;;;;45.10;22.60;;;;;;;2.61;88.59;100098.17;86919;1284;22481;-76
2022/11/27 00:20:18;;;;;;;64.70;24.30;;;;;;;2.61;88.70;100097.82;86816;1284;98894;-76
2022/11/27 00:22:19;;;;;;;41.70;22.30;;;;;;;2.60;88.51;100097.64;86846;1287;22695;-76
2022/11/27 00:24:20;;;;;;;41.40;22.60;;;;;;;2.59;88.55;100101.98;86972;1292;22486;-75
2022/11/27 00:26:21;;;;;;;41.50;22.30;;;;;;;2.57;88.61;100099.04;86839;1290;98682;-76
2022/11/27 00:28:23;;;;;;;41.80;22.40;;;;;;;2.57;88.54;100098.68;87078;1292;22726;-76
2022/11/27 00:30:24;;;;;;;44.60;23.50;;;;;;;2.57;88.70;100096.43;87000;1284;22452;-74
2022/11/27 00:32:25;;;;;;;36.20;21.70;;;;;;;2.55;88.59;100092.95;86830;1293;99705;-75
2022/11/27 00:34:26;;;;;;;39.60;21.60;;;;;;;2.54;88.39;100093.99;87010;1282;23822;-75
2022/11/27 00:36:29;;;;;;;42.60;23.00;;;;;;;2.53;88.23;100097.46;86819;1293;23904;-75
2022/11/27 00:38:30;;;;;;;40.60;22.00;;;;;;;2.53;88.52;100099.89;86987;1277;99317;-75
2022/11/27 00:40:31;;;;;;;36.80;20.60;;;;;;;2.52;88.33;100098.85;86855;1279;24294;-76
2022/11/27 00:42:32;;;;;;;40.00;23.00;;;;;;;2.52;88.55;100098.50;87068;1284;22518;-75
2022/11/27 00:44:33;;;;;;;35.30;20.50;;;;;;;2.50;88.57;100092.06;86912;1286;99042;-74
2022/11/27 00:46:34;;;;;;;37.60;21.40;;;;;;;2.49;88.43;100092.08;87006;1293;22543;-76
2022/11/27 00:48:35;;;;;;;40.00;21.70;;;;;;;2.47;88.12;100092.58;86793;1283;22514;-76
2022/11/27 00:50:36;;;;;;;46.30;22.90;;;;;;;2.45;88.76;100092.75;86854;1284;99763;-75
2022/11/27 00:52:37;;;;;;;48.00;24.80;;;;;;;2.45;88.40;100093.98;86914;1284;23875;-76
2022/11/27 00:54:38;;;;;;;44.70;25.00;;;;;;;2.45;88.41;100094.66;86894;1286;22896;-75
2022/11/27 00:56:39;;;;;;;39.80;23.20;;;;;;;2.44;88.28;100090.15;86895;1291;99182;-75
2022/11/27 00:58:40;;;;;;;46.00;24.60;;;;;;;2.44;88.47;100089.80;86927;1284;22555;-75
2022/11/27 01:00:41;;;;;;;43.60;25.20;;;;;;;2.43;88.48;100089.10;86945;1281;22704;-75
2022/11/27 01:02:42;;;;;;;45.60;24.50;;;;;;;2.42;88.33;100083.36;86868;1284;98324;-75
2022/11/27 01:04:45;;;;;;;;;;;;;;;2.42;88.29;100086.15;87165;1281;22483;-74
2022/11/27 01:06:46;;;;;;;47.70;24.30;;;;;;;2.40;88.53;100083.90;86986;1283;25271;-75
2022/11/27 01:08:47;;;;;;;46.60;24.00;;;;;;;2.40;88.53;100081.98;86905;1291;98662;-74
2022/11/27 01:10:54;;;;;;;49.60;24.20;;;;;;;2.40;88.45;100085.10;86920;1284;24846;-75
2022/11/27 01:12:55;;;;;;;48.00;25.20;;;;;;;2.39;88.31;100081.98;86904;1286;24286;-76
2022/11/27 01:14:56;;;;;;;49.10;24.10;;;;;;;2.38;88.49;100081.63;86873;1286;98590;-76
2022/11/27 01:16:57;;;;;;;40.50;23.50;;;;;;;2.36;88.30;100081.10;87332;1292;24243;-75
2022/11/27 01:19:00;;;;;;;42.40;23.10;;;;;;;2.34;88.38;100077.45;87267;1283;25909;-75
2022/11/27 01:21:02;;;;;;;40.50;22.50;;;;;;;2.33;88.26;100079.88;87594;1292;98138;-75
2022/11/27 01:23:03;;;;;;;43.00;23.00;;;;;;;2.33;88.41;100081.45;87695;1293;22763;-75
2022/11/27 01:25:05;;;;;;;42.20;24.10;;;;;;;2.33;88.58;100085.60;87632;1286;22525;-75
2022/11/27 01:27:06;;;;;;;43.50;23.50;;;;;;;2.34;88.52;100085.59;87409;1287;98209;-75
2022/11/27 01:29:07;;;;;;;41.90;23.50;;;;;;;2.34;88.34;100087.17;87214;1309;22467;-74
2022/11/27 01:31:11;;;;;;;;;;;;;;;2.36;88.48;100087.52;87095;1280;24316;-75
2022/11/27 01:33:12;;;;;;;39.20;22.30;;;;;;;2.36;88.50;100082.67;87067;1291;85214;-75
2022/11/27 01:35:13;;;;;;;42.20;22.90;;;;;;;2.35;88.57;100081.96;87085;1293;22531;-75
2022/11/27 01:37:14;;;;;;;46.90;22.80;;;;;;;2.33;88.71;100081.09;86797;1277;22615;-75
2022/11/27 01:39:17;;;;;;;52.50;24.40;;;;;;;2.32;88.53;100080.40;86587;1279;99287;-75
2022/11/27 01:41:22;;;;;;;40.70;23.30;;;;;;;2.30;88.44;100076.39;86752;1283;23377;-75
2022/11/27 01:43:51;;;;;;;50.10;25.60;;;;;;;2.30;88.28;100075.01;86753;1283;22509;-74
2022/11/27 01:45:52;;;;;;;47.20;24.30;;;;;;;2.31;88.47;100074.33;86863;1274;99452;-74
2022/11/27 01:47:57;;;;;;;43.30;23.80;;;;;;;2.33;88.26;100077.46;86657;1279;25598;-75
2022/11/27 01:50:06;;;;;;;46.40;25.30;;;;;;;2.32;88.53;100073.64;86658;1284;22996;-75
2022/11/27 01:52:14;;;;;;;47.80;24.50;;;;;;;2.32;88.19;100074.67;86693;1287;22532;-75
2022/11/27 01:54:17;;;;;;;44.40;25.10;;;;;;;2.32;88.50;100072.42;86931;1277;25272;-74
2022/11/27 01:56:20;;;;;;;47.50;25.30;;;;;;;2.33;88.38;100068.77;86690;1279;98561;-76
2022/11/27 01:58:27;;;;;;;44.60;23.90;;;;;;;2.35;88.19;100071.04;86761;1284;22760;-76
2022/11/27 02:00:28;;;;;;;43.90;23.10;;;;;;;2.36;88.28;100075.04;86713;1283;22519;-76
2022/11/27 02:02:28;;;;;;;40.60;22.60;;;;;;;2.35;88.25;100075.90;86669;1300;99362;-76
2022/11/27 02:04:30;;;;;;;38.90;23.20;;;;;;;2.35;88.41;100079.53;86736;1283;22531;-74
2022/11/27 02:06:31;;;;;;;48.80;24.00;;;;;;;2.35;88.35;100074.16;86480;1289;22478;-75
2022/11/27 02:08:32;;;;;;;50.50;24.50;;;;;;;2.34;88.03;100072.23;86647;1283;99247;-74
2022/11/27 02:11:19;;;;;;;49.30;23.10;;;;;;;2.32;88.28;100071.73;86470;1280;172085;-75
2022/11/27 02:13:37;;;;;;;44.40;23.60;;;;;;;2.30;88.19;100074.48;86757;1276;25790;-75
2022/11/27 02:15:55;;;;;;;47.10;23.00;;;;;;;2.31;88.24;100069.13;86654;1284;99947;-75
2022/11/27 02:18:09;;;;;;;42.80;22.80;;;;;;;2.30;88.48;100072.58;86915;1280;25410;-74
2022/11/27 02:20:36;;;;;;;45.80;22.90;;;;;;;2.28;88.13;100075.00;86573;1287;98355;-74
2022/11/27 02:23:22;;;;;;;43.80;22.20;;;;;;;2.26;87.99;100078.46;86769;1277;22479;-75
2022/11/27 02:25:36;;;;;;;39.10;22.10;;;;;;;2.24;88.06;100081.40;86450;1293;22468;-75
2022/11/27 02:28:32;;;;;;;43.30;24.00;;;;;;;2.22;87.98;100081.93;86388;1291;100130;-74
2022/11/27 02:30:39;;;;;;;45.10;23.20;;;;;;;2.22;88.29;100077.58;86187;1300;22625;-75
2022/11/27 02:32:59;;;;;;;49.40;23.90;;;;;;;2.24;88.12;100079.84;86008;1292;98177;-77
2022/11/27 02:35:11;;;;;;;44.80;24.00;;;;;;;2.25;88.31;100080.54;86177;1293;24264;-75
2022/11/27 02:37:12;;;;;;;45.30;23.10;;;;;;;2.25;88.34;100082.80;85838;1288;22494;-74
2022/11/27 02:39:20;;;;;;;44.50;24.80;;;;;;;2.26;88.25;100083.66;86154;1289;98271;-75
2022/11/27 02:41:28;;;;;;;45.20;24.50;;;;;;;2.26;88.31;100085.92;86177;1296;24287;-75
2022/11/27 02:43:41;;;;;;;53.80;25.50;;;;;;;2.27;88.43;100087.14;86237;1293;22573;-75
2022/11/27 02:45:47;;;;;;;48.00;23.90;;;;;;;2.28;88.19;100090.96;86053;1294;98704;-74
2022/11/27 02:47:49;;;;;;;41.50;24.40;;;;;;;2.29;88.35;100095.64;86014;1296;25383;-74
2022/11/27 02:49:55;;;;;;;35.50;21.50;;;;;;;2.30;88.07;100100.34;86124;1299;22597;-74
2022/11/27 02:52:01;;;;;;;43.50;24.50;;;;;;;2.31;88.22;100102.93;86087;1293;99557;-75
2022/11/27 02:54:06;;;;;;;50.70;25.80;;;;;;;2.30;88.42;100103.80;86267;1299;24228;-73
2022/11/27 02:56:11;;;;;;;49.20;25.50;;;;;;;2.27;88.30;100100.33;86178;1291;99304;-75
2022/11/27 02:58:16;;;;;;;55.50;26.00;;;;;;;2.33;88.56;100108.33;85845;1296;22882;-74
2022/11/27 03:00:18;;;;;;;41.00;24.60;;;;;;;2.35;88.35;100109.89;85915;1296;25901;-75
2022/11/27 03:02:22;;;;;;;;;;;;;;;2.35;88.26;100111.63;86351;1283;98404;-75
2022/11/27 03:04:33;;;;;;;52.50;25.90;;;;;;;2.33;88.10;100109.89;86455;1289;22535;-74
2022/11/27 03:06:43;;;;;;;40.30;25.00;;;;;;;2.32;88.15;100111.61;86730;1287;22488;-74
2022/11/27 03:09:02;;;;;;;41.70;24.60;;;;;;;2.31;88.17;100111.42;86650;1280;99850;-73
2022/11/27 03:11:10;;;;;;;48.10;24.30;;;;;;;2.33;88.48;100109.37;86677;1293;22478;-73
2022/11/27 03:13:11;;;;;;;47.10;25.00;;;;;;;2.33;88.36;100103.46;86818;1277;22580;-74
2022/11/27 03:15:12;;;;;;;45.40;23.60;;;;;;;2.34;88.17;100107.11;86507;1294;99261;-74
2022/11/27 03:17:50;;;;;;;45.00;23.60;;;;;;;2.34;88.44;100109.02;86770;1283;25385;-75
2022/11/27 03:19:57;;;;;;;40.60;23.80;;;;;;;2.34;88.47;100114.22;86912;1284;22502;-74
2022/11/27 03:22:00;;;;;;;40.50;23.60;;;;;;;2.33;88.51;100114.40;86750;1283;99032;-75
2022/11/27 03:24:01;;;;;;;40.60;22.10;;;;;;;2.31;88.60;100116.81;86684;1292;25428;-73
2022/11/27 03:26:04;;;;;;;43.60;23.80;;;;;;;2.27;88.48;100117.33;86763;1307;22487;-75
2022/11/27 03:28:09;;;;;;;38.60;22.90;;;;;;;2.24;88.06;100112.28;86696;1283;99030;-73
2022/11/27 03:30:12;;;;;;;42.20;23.60;;;;;;;2.20;87.95;100108.63;86911;1284;22796;-75
2022/11/27 03:32:14;;;;;;;40.00;21.90;;;;;;;2.19;88.26;100109.14;86644;1287;99221;-74
2022/11/27 03:34:15;;;;;;;;;;;;;;;2.20;88.25;100107.92;86797;1283;22593;-74
2022/11/27 03:36:18;;;;;;;44.70;23.10;;;;;;;2.18;88.33;100108.62;86674;1280;22601;-74
2022/11/27 03:38:19;;;;;;;45.00;21.50;;;;;;;2.17;88.17;100110.52;86753;1284;98257;-74
2022/11/27 03:40:29;;;;;;;45.10;22.80;;;;;;;2.17;88.17;100112.60;86756;1287;22585;-74
2022/11/27 03:42:47;;;;;;;39.90;22.00;;;;;;;2.17;88.09;100108.09;86844;1290;24744;-76
2022/11/27 03:45:36;;;;;;;41.90;22.00;;;;;;;2.17;88.13;100117.97;86787;1283;98086;-75
2022/11/27 03:47:53;;;;;;;40.10;21.50;;;;;;;2.17;88.44;100118.50;86940;1282;22508;-75
2022/11/27 03:50:21;;;;;;;38.90;21.30;;;;;;;2.16;88.46;100117.80;86886;1284;25685;-75
2022/11/27 03:52:34;;;;;;;36.60;21.70;;;;;;;2.15;88.38;100117.27;86905;1277;22727;-75
2022/11/27 03:54:58;;;;;;;39.80;21.70;;;;;;;2.16;88.20;100120.21;86910;1284;22480;-74
2022/11/27 03:57:26;;;;;;;45.30;21.40;;;;;;;2.17;88.12;100118.84;86800;1277;99337;-74
2022/11/27 03:59:36;;;;;;;43.80;22.70;;;;;;;2.17;88.33;100117.96;87557;1286;23498;-74
2022/11/27 04:01:39;;;;;;;43.10;23.30;;;;;;;2.18;88.44;100116.25;87586;1277;23362;-74
2022/11/27 04:03:41;;;;;;;40.60;22.90;;;;;;;2.18;88.49;100115.89;87444;1277;98493;-74
2022/11/27 04:05:42;;;;;;;44.90;24.10;;;;;;;2.20;88.27;100116.08;86933;1277;22540;-75
2022/11/27 04:07:43;;;;;;;40.60;22.40;;;;;;;2.21;88.44;100111.58;86885;1283;23849;-74
2022/11/27 04:09:43;;;;;;;37.90;21.30;;;;;;;2.22;88.34;100112.10;86866;1281;98749;-74
2022/11/27 04:11:44;;;;;;;47.70;23.70;;;;;;;2.19;88.29;100111.21;86914;1277;22607;-75
2022/11/27 04:13:45;;;;;;;42.60;23.10;;;;;;;2.18;88.52;100112.25;86934;1294;25883;-74
2022/11/27 04:15:47;;;;;;;38.60;22.60;;;;;;;2.17;88.44;100110.70;86842;1285;98291;-73
2022/11/27 04:17:47;;;;;;;40.00;23.20;;;;;;;2.19;88.16;100115.39;86881;1294;22564;-75
2022/11/27 04:19:49;;;;;;;;;;;;;;;2.22;88.47;100116.08;86853;1286;24247;-74
2022/11/27 04:21:50;;;;;;;52.50;29.60;;;;;;;2.23;88.19;100115.22;86847;1277;84424;-74
2022/11/27 04:23:52;;;;;;;51.30;25.60;;;;;;;2.24;88.55;100115.92;86899;1286;22486;-74
2022/11/27 04:25:53;;;;;;;40.70;21.50;;;;;;;2.25;88.77;100121.83;86941;1283;22414;-74
2022/11/27 04:27:54;;;;;;;40.10;21.80;;;;;;;2.25;88.42;100125.27;86814;1286;99375;-73
2022/11/27 04:29:55;;;;;;;47.40;24.20;;;;;;;2.25;88.50;100129.98;87012;1283;22572;-72
2022/11/27 04:31:56;;;;;;;39.40;23.00;;;;;;;2.26;88.41;100130.14;87032;1284;22505;-75
2022/11/27 04:33:57;;;;;;;40.00;22.90;;;;;;;2.27;88.49;100133.62;86884;1277;99323;-74
2022/11/27 04:35:58;;;;;;;44.60;23.60;;;;;;;2.27;88.22;100126.69;87000;1284;24268;-73
2022/11/27 04:37:59;;;;;;;42.40;23.60;;;;;;;2.26;88.48;100127.55;87056;1277;22586;-75
2022/11/27 04:40:01;;;;;;;44.70;24.30;;;;;;;2.26;88.48;100128.23;86965;1277;98149;-75
2022/11/27 04:42:02;;;;;;;46.60;24.60;;;;;;;2.16;88.40;100111.02;86973;1284;23356;-75
2022/11/27 04:44:04;;;;;;;49.10;24.70;;;;;;;2.24;88.15;100124.23;86987;1285;22785;-74
2022/11/27 04:46:05;;;;;;;48.10;23.40;;;;;;;2.22;88.65;100119.38;87127;1283;98041;-75
2022/11/27 04:48:06;;;;;;;45.80;23.70;;;;;;;2.22;88.35;100121.27;87077;1285;23038;-74
2022/11/27 04:50:08;;;;;;;48.20;25.40;;;;;;;2.24;88.35;100120.77;87138;1289;22519;-76
2022/11/27 04:52:12;;;;;;;42.10;24.10;;;;;;;2.26;88.54;100119.56;86850;1283;99170;-73
2022/11/27 04:54:13;;;;;;;45.50;24.10;;;;;;;2.23;88.39;100112.10;87143;1285;25542;-73
2022/11/27 04:56:14;;;;;;;48.30;24.60;;;;;;;2.22;88.29;100107.41;86951;1294;99820;-75
2022/11/27 04:58:14;;;;;;;50.10;24.30;;;;;;;2.19;88.29;100108.79;86869;1292;24275;-74
2022/11/27 05:00:16;;;;;;;44.90;24.20;;;;;;;2.17;88.30;100105.84;86955;1286;22643;-74
2022/11/27 05:02:17;;;;;;;45.00;23.90;;;;;;;2.16;88.29;100107.23;86954;1284;100174;-73
2022/11/27 05:04:18;;;;;;;46.50;25.10;;;;;;;2.15;88.38;100106.52;86955;1283;22618;-75
2022/11/27 05:06:21;;;;;;;47.90;24.80;;;;;;;2.12;88.23;100106.52;87167;1285;22604;-75
2022/11/27 05:08:23;;;;;;;46.30;24.30;;;;;;;2.10;88.13;100103.89;87086;1277;98472;-74
2022/11/27 05:10:24;;;;;;;44.70;25.30;;;;;;;2.09;88.05;100101.65;87058;1286;23522;-74
2022/11/27 05:12:25;;;;;;;40.10;24.00;;;;;;;2.08;88.26;100107.02;87163;1277;24229;-75
2022/11/27 05:14:28;;;;;;;44.40;25.00;;;;;;;2.07;88.17;100103.89;87035;1290;98185;-75
2022/11/27 05:16:29;;;;;;;47.30;25.40;;;;;;;2.07;88.27;100104.92;87096;1284;22520;-75
2022/11/27 05:18:30;;;;;;;47.90;25.50;;;;;;;2.08;88.08;100103.54;87117;1285;22480;-76
2022/11/27 05:20:30;;;;;;;44.10;25.20;;;;;;;2.07;88.29;100100.06;86928;1293;99473;-72
2022/11/27 05:22:32;;;;;;;41.60;23.40;;;;;;;2.06;88.35;100104.22;87051;1292;22438;-75
2022/11/27 05:24:32;;;;;;;51.50;26.60;;;;;;;2.06;88.30;100110.46;87161;1292;22496;-74
2022/11/27 05:26:34;;;;;;;48.00;23.70;;;;;;;2.07;88.47;100113.59;87102;1277;98621;-74
2022/11/27 05:28:35;;;;;;;45.70;25.50;;;;;;;2.08;88.26;100119.67;87191;1291;22665;-76
2022/11/27 05:30:36;;;;;;;45.60;24.60;;;;;;;2.09;88.62;100125.21;87189;1294;22725;-78
2022/11/27 05:32:37;;;;;;;45.10;24.80;;;;;;;2.09;88.56;100128.17;87288;1308;98819;-75
2022/11/27 05:34:38;;;;;;;47.80;24.60;;;;;;;2.07;88.47;100125.90;87660;1277;22432;-77
2022/11/27 05:36:41;;;;;;;47.00;25.10;;;;;;;2.11;88.37;100128.16;88012;1306;22507;-73
2022/11/27 05:38:42;;;;;;;42.60;23.80;;;;;;;2.12;88.37;100129.73;88001;1291;99667;-74
2022/11/27 05:40:43;;;;;;;37.40;22.90;;;;;;;2.12;88.43;100131.81;87044;1280;22518;-75
2022/11/27 05:42:44;;;;;;;38.10;23.20;;;;;;;2.11;88.52;100130.43;87175;1294;22427;-76
2022/11/27 05:44:45;;;;;;;44.60;23.50;;;;;;;2.12;88.45;100131.99;87019;1286;98129;-74
2022/11/27 05:46:46;;;;;;;40.20;23.60;;;;;;;2.11;88.33;100132.34;87109;1277;22462;-75
2022/11/27 05:48:47;;;;;;;44.60;24.10;;;;;;;2.11;88.49;100130.08;87036;1281;23330;-76
2022/11/27 05:50:48;;;;;;;47.90;23.80;;;;;;;2.11;88.14;100128.35;86960;1283;98041;-75
2022/11/27 05:52:49;;;;;;;56.00;26.60;;;;;;;2.10;88.56;100126.09;87065;1290;22492;-74
2022/11/27 05:54:50;;;;;;;55.90;24.70;;;;;;;2.09;88.56;100124.70;87145;1291;22736;-75
2022/11/27 05:56:51;;;;;;;53.90;26.10;;;;;;;2.11;88.67;100126.08;86997;1285;99424;-75
2022/11/27 05:58:52;;;;;;;47.90;26.30;;;;;;;2.13;88.53;100124.37;87005;1286;22540;-75
2022/11/27 06:00:53;;;;;;;45.10;25.10;;;;;;;2.15;88.62;100123.85;86907;1284;24338;-76
2022/11/27 06:02:56;;;;;;;45.00;25.10;;;;;;;2.16;88.82;100123.00;86900;1283;99622;-75
2022/11/27 06:04:57;;;;;;;46.90;26.10;;;;;;;2.17;88.53;100119.88;87060;1277;22565;-74
2022/11/27 06:06:58;;;;;;;49.80;26.80;;;;;;;2.19;88.68;100119.70;86980;1283;23039;-75
2022/11/27 06:08:59;;;;;;;50.50;27.80;;;;;;;2.20;88.71;100120.06;86962;1294;99128;-74
2022/11/27 06:11:08;;;;;;;51.40;24.60;;;;;;;2.21;88.81;100118.85;87063;1283;23030;-75
2022/11/27 06:13:10;;;;;;;53.10;26.10;;;;;;;2.21;88.53;100108.45;86958;1291;22523;-75
2022/11/27 06:15:11;;;;;;;41.40;24.20;;;;;;;2.22;88.57;100113.65;87277;1287;98226;-74
2022/11/27 06:17:15;;;;;;;46.10;24.10;;;;;;;2.21;88.61;100117.45;87464;1281;24358;-77
2022/11/27 06:19:16;;;;;;;43.40;23.40;;;;;;;2.21;88.65;100121.27;87546;1292;22466;-74
2022/11/27 06:21:18;;;;;;;49.90;25.00;;;;;;;2.21;88.76;100118.85;87491;1289;99509;-76
2022/11/27 06:23:21;;;;;;;43.20;24.90;;;;;;;2.22;88.61;100117.81;87408;1309;25947;-74
2022/11/27 06:25:25;;;;;;;51.00;27.30;;;;;;;2.21;88.50;100121.27;87333;1294;22532;-76
2022/11/27 06:27:32;;;;;;;53.70;30.70;;;;;;;2.22;88.71;100120.93;87226;1292;98538;-75
2022/11/27 06:29:33;;;;;;;55.00;30.00;;;;;;;2.21;88.67;100126.13;87156;1283;22480;-75
2022/11/27 06:31:34;;;;;;;47.20;29.30;;;;;;;2.20;88.57;100124.22;87275;1285;22539;-78
2022/11/27 06:33:36;;;;;;;59.20;30.80;;;;;;;2.19;88.69;100121.45;86970;1280;98273;-75
2022/11/27 06:35:37;;;;;;;54.60;30.30;;;;;;;2.17;88.52;100120.58;87239;1290;22465;-75
2022/11/27 06:37:37;;;;;;;62.70;32.30;;;;;;;2.16;88.47;100117.45;87859;1297;24416;-74
2022/11/27 06:39:38;;;;;;;60.50;31.30;;;;;;;2.15;88.43;100117.62;87725;1294;98117;-76
2022/11/27 06:41:39;;;;;;;62.90;32.20;;;;;;;2.14;88.48;100114.84;87628;1294;22487;-75
2022/11/27 06:43:40;;;;;;;62.50;34.30;;;;;;;2.15;88.57;100113.63;87676;1294;25271;-76
2022/11/27 06:45:41;;;;;;;66.00;33.20;;;;;;;2.16;88.41;100115.90;87105;1294;97988;-75
2022/11/27 06:47:42;;;;;;;59.80;32.60;;;;;;;2.16;88.43;100114.85;87140;1293;22488;-75
2022/11/27 06:49:43;;;;;;;57.50;31.90;;;;;;;2.16;88.30;100115.36;87151;1283;23345;-75
2022/11/27 06:51:44;;;;;;;52.50;30.20;;;;;;;2.18;88.56;100116.59;87118;1283;98075;-76
2022/11/27 06:53:46;;;;;;;50.10;30.00;;;;;;;2.20;88.39;100116.94;87051;1300;22553;-74
2022/11/27 06:55:47;;;;;;;59.00;30.80;;;;;;;2.18;88.28;100113.81;87293;1291;24868;-75
2022/11/27 06:57:50;;;;;;;54.90;28.90;;;;;;;2.18;88.65;100114.68;87081;1279;98081;-74
2022/11/27 06:59:51;;;;;;;61.40;31.00;;;;;;;2.19;88.50;100113.64;87191;1280;24242;-76
2022/11/27 07:01:52;;;;;;;59.80;33.60;;;;;;;2.20;88.44;100109.66;87186;1277;22501;-75
2022/11/27 07:03:53;;;;;;;62.70;32.20;;;;;;;2.22;88.67;100110.01;86960;1292;98231;-76
2022/11/27 07:05:54;;;;;;;57.50;28.90;;;;;;;2.24;88.50;100107.77;87125;1294;23949;-74
2022/11/27 07:07:55;;;;;;;51.30;28.50;;;;;;;2.24;88.76;100106.73;87106;1283;22545;-74
2022/11/27 07:09:56;;;;;;;47.00;26.90;;;;;;;2.25;88.47;100105.35;87088;1280;99206;-75
2022/11/27 07:11:57;;;;;;;61.40;28.50;;;;;;;2.24;88.56;100105.69;87173;1284;22624;-75
2022/11/27 07:14:01;;;;;;;58.20;33.40;;;;;;;2.24;88.41;100106.38;87204;1286;22466;-74
2022/11/27 07:16:05;;;;;;;55.30;30.40;;;;;;;2.24;88.38;100108.11;87025;1285;98093;-74
2022/11/27 07:18:06;;;;;;;53.80;29.20;;;;;;;2.22;88.60;100106.71;87294;1292;22585;-75
2022/11/27 07:20:07;;;;;;;45.70;27.70;;;;;;;2.23;88.52;100108.97;87323;1286;22579;-74
2022/11/27 07:22:08;;;;;;;;;;;;;;;2.21;88.56;100109.84;87323;1284;97844;-75
2022/11/27 07:24:09;;;;;;;51.10;28.50;;;;;;;2.20;88.64;100106.54;87436;1284;22932;-77
2022/11/27 07:26:16;;;;;;;55.00;29.90;;;;;;;2.18;88.29;100108.27;87326;1286;23870;-76
2022/11/27 07:28:17;;;;;;;53.60;30.40;;;;;;;2.22;88.64;100112.96;87281;1292;22502;-75
2022/11/27 07:30:19;;;;;;;56.50;31.20;;;;;;;2.24;88.80;100112.45;87481;1291;22483;-74
2022/11/27 07:32:20;;;;;;;;;;;;;;;2.25;88.48;100113.84;87528;1286;98432;-76
2022/11/27 07:34:22;;;;;;;52.80;29.90;;;;;;;2.25;88.36;100119.05;87410;1289;21829;-74
2022/11/27 07:36:27;;;;;;;52.50;30.30;;;;;;;2.25;88.46;100123.02;87324;1294;22495;-77
2022/11/27 07:38:28;;;;;;;55.20;30.90;;;;;;;2.27;88.66;100122.52;87203;1286;98237;-76
2022/11/27 07:40:29;;;;;;;74.00;36.90;;;;;;;2.28;88.33;100119.58;87263;1294;22507;-77
2022/11/27 07:42:30;;;;;;;85.90;44.10;;;;;;;2.28;88.44;100122.17;87171;1294;22513;-76
2022/11/27 07:44:31;;;;;;;81.50;45.40;;;;;;;2.30;88.44;100121.14;87155;1287;99479;-75
2022/11/27 07:46:32;;;;;;;86.10;43.70;;;;;;;2.25;88.53;100108.64;87346;1280;22728;-76
2022/11/27 07:48:33;;;;;;;80.60;43.50;;;;;;;2.32;88.45;100116.30;87066;1288;22490;-76
2022/11/27 07:50:35;;;;;;;79.70;41.60;;;;;;;2.33;88.39;100116.66;87183;1283;98213;-76
2022/11/27 07:52:37;;;;;;;83.00;43.10;;;;;;;2.35;88.49;100120.81;87277;1290;22732;-74
2022/11/27 07:54:38;;;;;;;54.30;30.00;;;;;;;2.37;88.54;100118.57;87225;1283;23818;-75
2022/11/27 07:56:39;;;;;;;;;;;;;;;2.39;88.52;100117.35;87205;1280;99803;-76
2022/11/27 07:58:40;;;;;;;64.30;32.30;;;;;;;2.40;88.57;100118.41;87293;1289;25119;-76
2022/11/27 08:00:41;;;;;;;46.00;27.70;;;;;;;2.42;88.42;100114.60;87154;1293;22418;-76
2022/11/27 08:02:42;;;;;;;49.60;25.10;;;;;;;2.45;88.61;100118.08;87115;1285;98118;-75
2022/11/27 08:04:43;;;;;;;44.00;23.50;;;;;;;2.46;88.58;100120.51;87074;1283;22575;-77
2022/11/27 08:06:47;;;;;;;47.00;24.70;;;;;;;2.46;88.53;100126.40;86965;1283;22529;-75
2022/11/27 08:08:49;;;;;;;44.00;24.90;;;;;;;2.47;88.56;100131.95;86835;1291;99258;-75
2022/11/27 08:10:50;;;;;;;47.50;24.90;;;;;;;2.49;88.78;100129.54;86934;1283;26664;-76
2022/11/27 08:12:51;;;;;;;41.40;23.40;;;;;;;2.50;88.25;100125.73;86869;1283;23325;-75
2022/11/27 08:14:52;;;;;;;42.60;25.00;;;;;;;2.51;88.26;100123.81;86651;1290;98162;-75
2022/11/27 08:16:53;;;;;;;40.80;24.60;;;;;;;2.51;88.43;100121.21;86772;1285;22542;-75
2022/11/27 08:18:54;;;;;;;49.30;25.80;;;;;;;2.53;88.33;100123.84;86820;1281;23991;-74
2022/11/27 08:20:58;;;;;;;;;;;;;;;2.55;88.38;100123.48;86793;1294;98048;-74
2022/11/27 08:22:59;;;;;;;40.40;23.50;;;;;;;2.53;88.26;100121.05;86906;1280;22531;-74
2022/11/27 08:25:00;;;;;;;43.70;24.70;;;;;;;2.56;88.60;100117.59;86804;1294;22563;-75
2022/11/27 08:27:01;;;;;;;40.10;23.60;;;;;;;2.60;88.25;100113.61;86669;1283;98202;-75
2022/11/27 08:29:02;;;;;;;44.40;24.50;;;;;;;2.61;88.37;100109.79;86753;1287;22734;-74
2022/11/27 08:31:05;;;;;;;39.00;23.10;;;;;;;2.62;88.38;100111.02;86772;1283;28013;-76
2022/11/27 08:33:06;;;;;;;44.00;24.40;;;;;;;2.63;88.53;100108.23;86727;1277;99636;-75
2022/11/27 08:35:09;;;;;;;39.90;23.70;;;;;;;2.65;88.36;100113.80;86756;1288;22806;-75
2022/11/27 08:37:10;;;;;;;37.20;22.90;;;;;;;2.65;88.52;100113.44;86797;1288;22502;-75
2022/11/27 08:39:11;;;;;;;35.60;23.40;;;;;;;2.67;88.29;100117.09;86804;1300;98066;-74
2022/11/27 08:41:12;;;;;;;43.60;26.70;;;;;;;2.69;88.33;100116.93;86787;1283;22622;-75
2022/11/27 08:43:13;;;;;;;49.70;26.50;;;;;;;2.70;88.37;100115.20;86853;1283;22517;-76
2022/11/27 08:45:14;;;;;;;45.20;26.00;;;;;;;2.72;88.50;100119.89;86832;1283;99257;-75
2022/11/27 08:47:15;;;;;;;50.90;26.80;;;;;;;2.74;88.38;100114.85;86853;1283;24658;-73
2022/11/27 08:49:17;;;;;;;48.40;27.80;;;;;;;2.75;88.51;100112.08;86997;1280;22616;-75
2022/11/27 08:51:17;;;;;;;;;;;;;;;2.76;88.37;100110.34;86897;1290;99381;-75
2022/11/27 08:53:19;;;;;;;51.30;28.10;;;;;;;2.77;88.55;100106.88;86885;1285;22520;-75
2022/11/27 08:55:20;;;;;;;;;;;;;;;2.80;88.53;100112.61;86882;1291;22517;-76
2022/11/27 08:57:20;;;;;;;56.10;29.80;;;;;;;2.80;88.20;100109.15;86727;1283;84377;-75
2022/11/27 08:59:21;;;;;;;53.40;28.40;;;;;;;2.81;88.57;100108.61;86943;1285;22548;-75
2022/11/27 09:01:25;;;;;;;40.70;24.40;;;;;;;2.83;88.50;100111.93;87050;1290;25265;-75
2022/11/27 09:03:26;;;;;;;44.50;25.20;;;;;;;2.83;88.25;100113.14;86926;1283;98387;-74
2022/11/27 09:05:28;;;;;;;48.40;25.80;;;;;;;2.84;88.05;100112.97;86896;1283;22891;-74
2022/11/27 09:07:29;;;;;;;45.70;27.40;;;;;;;2.86;88.39;100114.35;86929;1283;22503;-75
2022/11/27 09:09:30;;;;;;;47.20;27.20;;;;;;;2.88;88.42;100114.70;86890;1291;98874;-75
2022/11/27 09:11:33;;;;;;;48.10;28.20;;;;;;;2.87;88.40;100118.70;87026;1288;22504;-75
2022/11/27 09:13:39;;;;;;;49.30;27.70;;;;;;;2.88;88.15;100118.87;87108;1291;24240;-76
2022/11/27 09:15:40;;;;;;;49.70;26.80;;;;;;;2.88;88.19;100118.70;87436;1299;99214;-75
2022/11/27 09:17:41;;;;;;;51.50;28.20;;;;;;;2.89;88.15;100116.97;87177;1290;22487;-75
2022/11/27 09:19:42;;;;;;;41.40;26.90;;;;;;;2.89;88.06;100112.11;87166;1285;22537;-75
2022/11/27 09:21:44;;;;;;;48.80;27.00;;;;;;;2.90;88.07;100110.89;86831;1283;98780;-75
2022/11/27 09:23:45;;;;;;;46.70;27.70;;;;;;;2.91;88.02;100110.19;86500;1285;26041;-73
2022/11/27 09:25:46;;;;;;;49.00;28.50;;;;;;;2.93;88.37;100113.15;86568;1283;23749;-73
2022/11/27 09:27:47;;;;;;;46.00;28.30;;;;;;;2.95;88.12;100117.84;86363;1283;99418;-74
2022/11/27 09:29:48;;;;;;;48.50;26.40;;;;;;;2.99;87.99;100120.81;87296;1286;22599;-74
2022/11/27 09:31:49;;;;;;;45.70;27.50;;;;;;;3.00;88.07;100117.85;87131;1292;22510;-76